Markdale, Canada
Current Conditions -  °F | °C
As of 9:00 PM on Friday 24 Oct 2014 (Local Time) from CYBN Reporting Station
Overcast Overcast  
Wind Chill: 45°   Ceiling: 3500
Heat Index: 45°   Visibility: 9mi
Dew Point: 43°   Wind: 2mph
Humidity: 93%   Direction: 180°S
Pressure: 29.93"   Gusts: NA
Location:  44.32°N, 80.65°W
Report Text: CYBN 250100Z AUTO 18002KT 9SM OVC035 07/06 A2993 RMK SLP144
Loading
Personal Weather Stations






























Interactive Weather Map
Tropical Storm Tracking
New forecast layout! Learn more

10-Day Weather Forecast

Advertisements
Track Severe Weather on mobile